Time;durP1;ratioP1;P1;durP2;ratioP2;P2;SDS_P1;SDS_P2;PMS_P1;PMS_P2;Temp;Humidity;BMP_temperature;BMP_pressure;BME280_temperature;BME280_humidity;BME280_pressure;Samples;Min_cycle;Max_cycle;Signal;HPM_P1;HPM_P2
2024/03/12 00:01:40;;;;;;;;;68.00;54.00;;;;;;;;5091640;28;11547;-85
2024/03/12 00:04:09;;;;;;;;;62.25;51.00;;;;;;;;5093796;28;11600;-86
2024/03/12 00:06:36;;;;;;;;;68.50;53.50;;;;;;;;5094838;28;11681;-85
2024/03/12 00:09:09;;;;;;;;;60.75;48.75;;;;;;;;5094398;28;11575;-87
2024/03/12 00:11:36;;;;;;;;;61.25;45.75;;;;;;;;5092065;28;11609;-85
2024/03/12 00:14:04;;;;;;;;;64.75;51.25;;;;;;;;5090641;28;11585;-84
2024/03/12 00:16:31;;;;;;;;;66.50;50.50;;;;;;;;5090603;28;11662;-84
2024/03/12 00:19:00;;;;;;;;;66.25;50.25;;;;;;;;5090186;28;11602;-86
2024/03/12 00:21:28;;;;;;;;;60.25;48.50;;;;;;;;5090163;28;11587;-85
2024/03/12 00:23:56;;;;;;;;;69.75;54.25;;;;;;;;5090202;28;12368;-84
2024/03/12 00:26:24;;;;;;;;;64.25;52.00;;;;;;;;5089806;28;11743;-83
2024/03/12 00:28:52;;;;;;;;;69.75;52.00;;;;;;;;5090068;28;11602;-84
2024/03/12 00:31:19;;;;;;;;;65.50;52.00;;;;;;;;5091302;28;11524;-83
2024/03/12 00:33:49;;;;;;;;;67.25;52.25;;;;;;;;5091045;28;11573;-85
2024/03/12 00:36:19;;;;;;;;;66.50;52.25;;;;;;;;5090268;28;11704;-86
2024/03/12 00:38:47;;;;;;;;;71.00;54.25;;;;;;;;5094063;28;11574;-83
2024/03/12 00:41:14;;;;;;;;;58.00;47.00;;;;;;;;5114261;28;11613;-85
2024/03/12 00:43:45;;;;;;;;;64.75;52.75;;;;;;;;5097417;28;11579;-84
2024/03/12 00:46:13;;;;;;;;;64.00;53.00;;;;;;;;5089968;28;11604;-83
2024/03/12 00:48:40;;;;;;;;;65.00;50.50;;;;;;;;5089814;28;11570;-83
2024/03/12 00:51:08;;;;;;;;;64.75;50.75;;;;;;;;5089492;28;11601;-86
2024/03/12 00:53:35;;;;;;;;;62.00;51.50;;;;;;;;5090349;28;11669;-84
2024/03/12 00:56:03;;;;;;;;;65.50;50.00;;;;;;;;5089359;28;11636;-84
2024/03/12 00:58:33;;;;;;;;;63.00;51.00;;;;;;;;5089947;28;11727;-86
2024/03/12 01:01:03;;;;;;;;;66.00;53.00;;;;;;;;5088910;28;11504;-85
2024/03/12 01:03:30;;;;;;;;;62.00;51.00;;;;;;;;5089780;28;11561;-84
2024/03/12 01:05:58;;;;;;;;;64.50;50.25;;;;;;;;5088978;28;11570;-83
2024/03/12 01:08:25;;;;;;;;;63.50;52.50;;;;;;;;5090215;28;11565;-85
2024/03/12 01:10:53;;;;;;;;;67.25;52.25;;;;;;;;5089262;28;12342;-85
2024/03/12 01:13:20;;;;;;;;;61.00;49.00;;;;;;;;5090103;28;11571;-84
2024/03/12 01:15:48;;;;;;;;;64.75;52.25;;;;;;;;5089330;28;11600;-84
2024/03/12 01:18:17;;;;;;;;;58.00;48.50;;;;;;;;5089894;28;11577;-83
2024/03/12 01:20:44;;;;;;;;;64.50;51.75;;;;;;;;5090083;28;11720;-83
2024/03/12 01:23:13;;;;;;;;;68.25;55.25;;;;;;;;5089409;28;11708;-84
2024/03/12 01:25:41;;;;;;;;;64.75;53.00;;;;;;;;5089818;28;11714;-85
2024/03/12 01:28:10;;;;;;;;;64.75;52.50;;;;;;;;5089319;28;12389;-87
2024/03/12 01:30:37;;;;;;;;;61.50;50.50;;;;;;;;5090932;28;11960;-85
2024/03/12 01:33:05;;;;;;;;;64.25;51.00;;;;;;;;5091808;28;11722;-84
2024/03/12 01:35:37;;;;;;;;;64.25;51.75;;;;;;;;5092891;28;11715;-84
2024/03/12 01:38:05;;;;;;;;;70.25;53.25;;;;;;;;5094466;28;11584;-85
2024/03/12 01:40:33;;;;;;;;;70.25;57.00;;;;;;;;5095128;28;11658;-84
2024/03/12 01:43:03;;;;;;;;;58.50;46.50;;;;;;;;5094724;28;11599;-85
2024/03/12 01:45:32;;;;;;;;;64.00;50.25;;;;;;;;5094694;28;11577;-83
2024/03/12 01:48:06;;;;;;;;;65.75;49.50;;;;;;;;5092341;28;11575;-83
2024/03/12 01:50:37;;;;;;;;;64.25;48.75;;;;;;;;5089340;28;11575;-83
2024/03/12 01:53:05;;;;;;;;;60.00;50.25;;;;;;;;5077488;28;11705;-83
2024/03/12 01:55:34;;;;;;;;;72.75;53.50;;;;;;;;5092295;28;11598;-86
2024/03/12 01:58:02;;;;;;;;;69.00;53.75;;;;;;;;5092289;28;11602;-83
2024/03/12 02:00:33;;;;;;;;;66.25;50.50;;;;;;;;5088667;28;12224;-84
2024/03/12 02:03:00;;;;;;;;;63.50;51.75;;;;;;;;5088922;28;11605;-84
2024/03/12 02:05:27;;;;;;;;;65.25;50.00;;;;;;;;5088072;28;11644;-84
2024/03/12 02:07:56;;;;;;;;;63.50;50.50;;;;;;;;5088296;28;11584;-84
2024/03/12 02:10:24;;;;;;;;;62.75;51.00;;;;;;;;5087877;28;11571;-83
2024/03/12 02:12:52;;;;;;;;;65.75;53.50;;;;;;;;5088493;28;11573;-85
2024/03/12 02:15:20;;;;;;;;;65.00;53.00;;;;;;;;5088219;28;11677;-87
2024/03/12 02:17:48;;;;;;;;;70.50;54.25;;;;;;;;5088448;28;11626;-83
2024/03/12 02:20:17;;;;;;;;;65.25;52.75;;;;;;;;5088680;28;11625;-85
2024/03/12 02:22:44;;;;;;;;;73.50;56.75;;;;;;;;5088714;28;11562;-84
2024/03/12 02:25:13;;;;;;;;;72.75;55.75;;;;;;;;5078355;28;12342;-84
2024/03/12 02:27:41;;;;;;;;;72.75;56.50;;;;;;;;5088561;28;11695;-85
2024/03/12 02:30:10;;;;;;;;;69.25;49.25;;;;;;;;5087822;28;11585;-84
2024/03/12 02:32:38;;;;;;;;;70.25;54.75;;;;;;;;5088614;28;11711;-84
2024/03/12 02:35:08;;;;;;;;;71.25;55.25;;;;;;;;5087587;28;11572;-83
2024/03/12 02:37:35;;;;;;;;;69.25;54.50;;;;;;;;5088251;28;11602;-84
2024/03/12 02:40:04;;;;;;;;;64.00;51.00;;;;;;;;5088005;28;11569;-85
2024/03/12 02:42:33;;;;;;;;;59.50;47.00;;;;;;;;5088468;28;11714;-82
2024/03/12 02:45:00;;;;;;;;;67.00;53.50;;;;;;;;5083813;28;11562;-84
2024/03/12 02:47:30;;;;;;;;;67.25;54.25;;;;;;;;5091272;28;11653;-85
2024/03/12 02:49:59;;;;;;;;;60.00;50.75;;;;;;;;5092417;28;11580;-83
2024/03/12 02:52:26;;;;;;;;;66.50;52.25;;;;;;;;5123468;27;11593;-82
2024/03/12 02:54:54;;;;;;;;;56.50;47.00;;;;;;;;5092020;28;11605;-82
2024/03/12 02:57:21;;;;;;;;;65.25;50.00;;;;;;;;5092189;28;12425;-84
2024/03/12 02:59:50;;;;;;;;;59.75;48.00;;;;;;;;5091897;28;11662;-82
2024/03/12 03:02:17;;;;;;;;;56.25;45.25;;;;;;;;5091571;28;11567;-83
2024/03/12 03:04:45;;;;;;;;;60.50;47.00;;;;;;;;5091888;28;11598;-82
2024/03/12 03:07:12;;;;;;;;;61.50;50.25;;;;;;;;5091688;28;11570;-82
2024/03/12 03:09:40;;;;;;;;;59.50;48.50;;;;;;;;5090893;28;11552;-85
2024/03/12 03:12:08;;;;;;;;;55.50;46.00;;;;;;;;5081237;28;11595;-84
2024/03/12 03:14:35;;;;;;;;;65.50;50.50;;;;;;;;5091845;28;11609;-82
2024/03/12 03:17:07;;;;;;;;;68.25;53.00;;;;;;;;5093701;28;11610;-83
2024/03/12 03:19:34;;;;;;;;;66.75;51.50;;;;;;;;5111230;28;11619;-83
2024/03/12 03:22:01;;;;;;;;;61.00;49.00;;;;;;;;5099468;28;11569;-84
2024/03/12 03:24:29;;;;;;;;;72.75;55.50;;;;;;;;5098506;28;11650;-85
2024/03/12 03:26:57;;;;;;;;;70.00;53.50;;;;;;;;5099227;28;11614;-83
2024/03/12 03:29:31;;;;;;;;;57.00;45.25;;;;;;;;5099662;28;11605;-83
2024/03/12 03:31:58;;;;;;;;;61.00;49.75;;;;;;;;5102730;28;11517;-83
2024/03/12 03:34:28;;;;;;;;;61.25;51.25;;;;;;;;5109120;28;11550;-82
2024/03/12 03:36:56;;;;;;;;;57.25;44.75;;;;;;;;5099229;28;11667;-83
2024/03/12 03:39:25;;;;;;;;;61.00;49.25;;;;;;;;5088730;28;11707;-83
2024/03/12 03:41:54;;;;;;;;;59.75;47.50;;;;;;;;5089900;28;11590;-80
2024/03/12 03:44:22;;;;;;;;;58.75;47.25;;;;;;;;5095678;28;11566;-82
2024/03/12 03:46:49;;;;;;;;;64.00;48.00;;;;;;;;5090858;28;11590;-82
2024/03/12 03:49:23;;;;;;;;;64.50;49.00;;;;;;;;5092054;28;11585;-84
2024/03/12 03:51:52;;;;;;;;;57.50;47.00;;;;;;;;5083021;28;11582;-85
2024/03/12 03:54:19;;;;;;;;;55.50;43.50;;;;;;;;5089358;28;11617;-83
2024/03/12 03:56:48;;;;;;;;;60.25;48.25;;;;;;;;5090728;28;11620;-83
2024/03/12 03:59:19;;;;;;;;;58.00;43.50;;;;;;;;5090371;28;11666;-83
2024/03/12 04:01:49;;;;;;;;;60.25;48.75;;;;;;;;5090294;28;11545;-84
2024/03/12 04:04:19;;;;;;;;;57.50;48.50;;;;;;;;5088866;28;11600;-82
2024/03/12 04:06:47;;;;;;;;;58.75;45.75;;;;;;;;5090500;28;11571;-84
2024/03/12 04:09:16;;;;;;;;;57.00;44.75;;;;;;;;5090315;28;11679;-82
2024/03/12 04:11:44;;;;;;;;;59.00;48.75;;;;;;;;5090271;28;11567;-84
2024/03/12 04:14:12;;;;;;;;;55.50;46.25;;;;;;;;5089605;28;11589;-84
2024/03/12 04:16:39;;;;;;;;;59.25;47.75;;;;;;;;5090269;28;11591;-84
2024/03/12 04:19:06;;;;;;;;;54.25;43.50;;;;;;;;5090195;28;11570;-83
2024/03/12 04:21:34;;;;;;;;;53.00;44.25;;;;;;;;5090007;28;11646;-83
2024/03/12 04:24:01;;;;;;;;;60.25;48.50;;;;;;;;5089770;28;12358;-84
2024/03/12 04:26:30;;;;;;;;;53.75;44.75;;;;;;;;5090365;28;12028;-85
2024/03/12 04:28:57;;;;;;;;;57.50;43.75;;;;;;;;5089815;28;11727;-83
2024/03/12 04:31:25;;;;;;;;;56.50;43.50;;;;;;;;5089435;28;11545;-83
2024/03/12 04:33:53;;;;;;;;;51.00;41.50;;;;;;;;5088553;28;11584;-85
2024/03/12 04:36:29;;;;;;;;;46.50;37.00;;;;;;;;5090430;28;11496;-82
2024/03/12 04:38:57;;;;;;;;;54.25;41.75;;;;;;;;5078084;28;11517;-85
2024/03/12 04:41:24;;;;;;;;;51.75;41.75;;;;;;;;5089514;28;11642;-83
2024/03/12 04:43:53;;;;;;;;;55.25;45.25;;;;;;;;5089980;28;11505;-83
2024/03/12 04:46:20;;;;;;;;;47.50;41.00;;;;;;;;5089126;28;11509;-86
2024/03/12 04:48:48;;;;;;;;;50.75;41.00;;;;;;;;5089996;28;11527;-84
2024/03/12 04:51:18;;;;;;;;;54.50;41.00;;;;;;;;5088205;28;11503;-84
2024/03/12 04:53:46;;;;;;;;;43.00;36.00;;;;;;;;5089837;28;11531;-83
2024/03/12 04:56:16;;;;;;;;;39.50;36.50;;;;;;;;5089877;28;11507;-85
2024/03/12 04:58:44;;;;;;;;;47.00;38.50;;;;;;;;5098311;28;11495;-83
2024/03/12 05:01:12;;;;;;;;;49.75;39.75;;;;;;;;5088378;28;11490;-86
2024/03/12 05:03:40;;;;;;;;;52.00;41.50;;;;;;;;5089561;28;11550;-84
2024/03/12 05:06:08;;;;;;;;;52.25;43.25;;;;;;;;5088446;28;11550;-83
2024/03/12 05:08:35;;;;;;;;;43.25;35.25;;;;;;;;5090522;28;11516;-82
2024/03/12 05:11:03;;;;;;;;;43.50;36.75;;;;;;;;5092834;28;11524;-83
2024/03/12 05:13:32;;;;;;;;;46.25;36.50;;;;;;;;5094553;28;11519;-83
2024/03/12 05:15:59;;;;;;;;;49.50;41.50;;;;;;;;5094256;28;11611;-87
2024/03/12 05:18:27;;;;;;;;;44.50;38.00;;;;;;;;5095193;28;11638;-84
2024/03/12 05:20:55;;;;;;;;;44.00;36.75;;;;;;;;5093460;28;12254;-82
2024/03/12 05:23:23;;;;;;;;;41.00;35.75;;;;;;;;5093587;28;11514;-81
2024/03/12 05:25:53;;;;;;;;;39.50;34.00;;;;;;;;5093254;28;11625;-82
2024/03/12 05:28:20;;;;;;;;;36.50;34.50;;;;;;;;5089504;28;11523;-81
2024/03/12 05:30:49;;;;;;;;;44.25;36.00;;;;;;;;5089426;28;11477;-82
2024/03/12 05:33:26;;;;;;;;;46.50;38.25;;;;;;;;5091944;28;11500;-81
2024/03/12 05:35:56;;;;;;;;;39.75;34.25;;;;;;;;5093300;28;11546;-81
2024/03/12 05:38:33;;;;;;;;;41.75;38.25;;;;;;;;5091137;28;11593;-82
2024/03/12 05:41:14;;;;;;;;;41.25;35.50;;;;;;;;5089719;28;11506;-81
2024/03/12 05:49:19;;;;;;;;;35.75;29.25;;;;;;;;5091561;28;11462;-82
2024/03/12 05:51:48;;;;;;;;;40.00;34.50;;;;;;;;5083519;28;11518;-82
2024/03/12 05:54:18;;;;;;;;;41.00;34.00;;;;;;;;5113582;28;11515;-83
2024/03/12 05:56:47;;;;;;;;;43.50;35.00;;;;;;;;5094422;28;11590;-83
2024/03/12 05:59:18;;;;;;;;;34.75;31.25;;;;;;;;5090304;28;11608;-82
2024/03/12 06:01:45;;;;;;;;;41.75;34.00;;;;;;;;5090533;28;12270;-83
2024/03/12 06:04:15;;;;;;;;;42.00;33.00;;;;;;;;5089754;28;11482;-83
2024/03/12 06:06:43;;;;;;;;;30.75;30.75;;;;;;;;5090026;28;11543;-84
2024/03/12 06:09:15;;;;;;;;;28.50;27.00;;;;;;;;5088803;28;11498;-84
2024/03/12 06:11:42;;;;;;;;;36.50;33.75;;;;;;;;5088571;28;11492;-85
2024/03/12 06:14:09;;;;;;;;;35.00;35.00;;;;;;;;5089085;28;11645;-82
2024/03/12 06:16:36;;;;;;;;;36.75;34.25;;;;;;;;5088451;28;11613;-79
2024/03/12 06:19:06;;;;;;;;;35.50;34.50;;;;;;;;5092140;28;11493;-79
2024/03/12 06:21:34;;;;;;;;;35.75;30.50;;;;;;;;5092569;28;11583;-77
2024/03/12 06:24:01;;;;;;;;;27.25;25.25;;;;;;;;5087333;28;11616;-80
2024/03/12 06:26:33;;;;;;;;;29.50;24.75;;;;;;;;5090338;28;11593;-79
2024/03/12 06:29:01;;;;;;;;;30.25;29.50;;;;;;;;5093525;28;11513;-78
2024/03/12 06:31:29;;;;;;;;;31.50;25.25;;;;;;;;5091605;28;11457;-80
2024/03/12 06:33:56;;;;;;;;;37.25;31.00;;;;;;;;5092098;28;11550;-79
2024/03/12 06:36:23;;;;;;;;;31.25;31.25;;;;;;;;5092017;28;11511;-79
2024/03/12 06:38:52;;;;;;;;;28.25;26.00;;;;;;;;5092485;28;11502;-81
2024/03/12 06:41:20;;;;;;;;;33.25;28.50;;;;;;;;5092627;28;11508;-81
2024/03/12 06:43:49;;;;;;;;;34.25;31.50;;;;;;;;5092398;28;11581;-78
2024/03/12 06:46:19;;;;;;;;;30.50;28.00;;;;;;;;5092338;28;12325;-78
2024/03/12 06:48:47;;;;;;;;;30.00;29.25;;;;;;;;5092617;28;11525;-77
2024/03/12 06:51:15;;;;;;;;;25.00;24.50;;;;;;;;5092319;28;11475;-78
2024/03/12 06:53:44;;;;;;;;;34.50;29.75;;;;;;;;5092980;28;11479;-79
2024/03/12 06:56:11;;;;;;;;;35.00;29.00;;;;;;;;5092596;28;11493;-80
2024/03/12 06:58:44;;;;;;;;;30.25;27.00;;;;;;;;5094008;28;11533;-77
2024/03/12 07:01:13;;;;;;;;;26.25;24.75;;;;;;;;5094133;28;11565;-80
2024/03/12 07:03:42;;;;;;;;;27.75;25.75;;;;;;;;5094858;28;11307;-78
2024/03/12 07:06:12;;;;;;;;;29.75;27.50;;;;;;;;5095569;28;11583;-78
2024/03/12 07:08:39;;;;;;;;;18.25;17.00;;;;;;;;5096204;28;11533;-82
2024/03/12 07:11:08;;;;;;;;;30.00;24.25;;;;;;;;5082223;28;11268;-76
2024/03/12 07:13:39;;;;;;;;;30.25;25.25;;;;;;;;5091331;28;11288;-78
2024/03/12 07:16:07;;;;;;;;;26.50;26.50;;;;;;;;5092872;28;11218;-78
2024/03/12 07:18:39;;;;;;;;;32.25;27.75;;;;;;;;5091992;28;11301;-77
2024/03/12 07:21:06;;;;;;;;;29.25;27.50;;;;;;;;5081405;28;11120;-81
2024/03/12 07:23:37;;;;;;;;;29.75;29.75;;;;;;;;5093059;28;11114;-82
2024/03/12 07:26:04;;;;;;;;;30.75;30.50;;;;;;;;5093915;28;11343;-80
2024/03/12 07:28:35;;;;;;;;;29.50;28.25;;;;;;;;5083676;28;11144;-79
2024/03/12 07:31:04;;;;;;;;;32.00;32.00;;;;;;;;5090441;28;11159;-79
2024/03/12 07:33:31;;;;;;;;;25.50;24.50;;;;;;;;5090789;28;11281;-81
2024/03/12 07:36:03;;;;;;;;;27.25;26.75;;;;;;;;5090147;28;11699;-80
2024/03/12 07:38:33;;;;;;;;;32.50;29.50;;;;;;;;5090365;28;11874;-82
2024/03/12 07:41:00;;;;;;;;;36.75;33.00;;;;;;;;5090517;28;11315;-83
2024/03/12 07:43:28;;;;;;;;;30.00;25.50;;;;;;;;5090174;28;11294;-80
2024/03/12 07:45:56;;;;;;;;;23.75;23.50;;;;;;;;5091271;28;11123;-81
2024/03/12 07:48:23;;;;;;;;;31.25;28.00;;;;;;;;5092471;28;11230;-78
2024/03/12 07:53:39;;;;;;;;;29.00;28.00;;;;;;;;5090211;28;11124;-78
2024/03/12 07:56:07;;;;;;;;;31.75;30.75;;;;;;;;5090434;28;11286;-79
2024/03/12 07:58:35;;;;;;;;;31.50;29.75;;;;;;;;5090291;28;12103;-78
2024/03/12 08:01:03;;;;;;;;;32.50;30.25;;;;;;;;5089361;28;11231;-77
2024/03/12 08:03:31;;;;;;;;;29.75;29.75;;;;;;;;5090133;28;11198;-78
2024/03/12 08:05:59;;;;;;;;;32.75;29.00;;;;;;;;5089587;28;11522;-78
2024/03/12 08:08:26;;;;;;;;;29.50;25.25;;;;;;;;5090203;28;12248;-78
2024/03/12 08:10:57;;;;;;;;;29.25;28.75;;;;;;;;5089569;28;11491;-77
2024/03/12 08:13:25;;;;;;;;;32.25;32.25;;;;;;;;5090247;28;11219;-77
2024/03/12 08:15:52;;;;;;;;;30.00;27.50;;;;;;;;5089922;28;11516;-76
2024/03/12 08:18:19;;;;;;;;;33.00;29.25;;;;;;;;5089311;28;11392;-77
2024/03/12 08:20:52;;;;;;;;;28.50;28.50;;;;;;;;5090103;28;11195;-77
2024/03/12 08:23:20;;;;;;;;;32.00;31.50;;;;;;;;5089274;28;11068;-77
2024/03/12 08:25:47;;;;;;;;;30.50;29.00;;;;;;;;5089966;28;11297;-77
2024/03/12 08:28:20;;;;;;;;;28.75;28.75;;;;;;;;5089991;28;11215;-79
2024/03/12 08:30:58;;;;;;;;;29.50;27.75;;;;;;;;5084798;28;10973;-77
2024/03/12 08:33:25;;;;;;;;;34.75;28.00;;;;;;;;5094264;28;11056;-78
2024/03/12 08:35:53;;;;;;;;;29.50;28.50;;;;;;;;5082681;28;10968;-76
2024/03/12 08:38:20;;;;;;;;;29.00;27.25;;;;;;;;5089625;28;11012;-77
2024/03/12 08:40:55;;;;;;;;;30.25;27.75;;;;;;;;5089265;28;10857;-76
2024/03/12 08:43:37;;;;;;;;;35.00;28.50;;;;;;;;5089493;28;10824;-78
2024/03/12 08:46:06;;;;;;;;;40.75;29.75;;;;;;;;5085458;28;10891;-78
2024/03/12 08:48:34;;;;;;;;;31.25;25.25;;;;;;;;5092142;28;11049;-77
2024/03/12 08:51:08;;;;;;;;;33.50;31.00;;;;;;;;5093598;28;10824;-77
2024/03/12 08:53:35;;;;;;;;;21.75;20.75;;;;;;;;5092799;28;10958;-76
2024/03/12 08:56:04;;;;;;;;;28.25;24.25;;;;;;;;5093696;28;10828;-77
2024/03/12 08:58:33;;;;;;;;;33.75;28.50;;;;;;;;5090756;28;10747;-78
2024/03/12 09:01:00;;;;;;;;;26.75;26.75;;;;;;;;5089921;28;10718;-78
2024/03/12 09:03:29;;;;;;;;;29.00;27.00;;;;;;;;5091585;28;10933;-78
2024/03/12 09:05:56;;;;;;;;;29.25;25.50;;;;;;;;5088609;28;10796;-76
2024/03/12 09:08:24;;;;;;;;;21.25;18.25;;;;;;;;5078811;28;11424;-77
2024/03/12 09:10:52;;;;;;;;;24.00;24.00;;;;;;;;5088462;28;10662;-78
2024/03/12 09:13:19;;;;;;;;;29.25;25.75;;;;;;;;5088951;28;10557;-78
2024/03/12 09:15:50;;;;;;;;;30.00;28.50;;;;;;;;5087553;28;10669;-77
2024/03/12 09:18:19;;;;;;;;;27.50;22.25;;;;;;;;5088440;28;10640;-78
2024/03/12 09:20:47;;;;;;;;;21.25;20.25;;;;;;;;5088078;28;10887;-78
2024/03/12 09:23:15;;;;;;;;;21.50;21.50;;;;;;;;5088747;28;10558;-77
2024/03/12 09:25:43;;;;;;;;;25.50;25.50;;;;;;;;5088231;28;11409;-77
2024/03/12 09:28:10;;;;;;;;;22.25;20.75;;;;;;;;5088646;28;10515;-77
2024/03/12 09:30:38;;;;;;;;;23.00;23.00;;;;;;;;5085699;28;10382;-77
2024/03/12 09:33:07;;;;;;;;;25.75;22.75;;;;;;;;5089746;28;10429;-77
2024/03/12 09:35:37;;;;;;;;;21.50;19.25;;;;;;;;5089069;28;10524;-77
2024/03/12 09:38:09;;;;;;;;;28.25;26.75;;;;;;;;5087680;28;11275;-76
2024/03/12 09:40:36;;;;;;;;;25.50;25.00;;;;;;;;5088018;28;10579;-77
2024/03/12 09:43:05;;;;;;;;;25.25;24.00;;;;;;;;5088098;28;11498;-79
2024/03/12 09:45:32;;;;;;;;;20.75;20.75;;;;;;;;5087834;28;10517;-80
2024/03/12 09:48:00;;;;;;;;;26.00;22.75;;;;;;;;5088415;28;10635;-79
2024/03/12 09:50:31;;;;;;;;;24.00;19.75;;;;;;;;5087863;28;10397;-78
2024/03/12 09:52:59;;;;;;;;;28.00;24.00;;;;;;;;5087551;28;11198;-79
2024/03/12 09:55:29;;;;;;;;;22.50;20.75;;;;;;;;5087720;28;10582;-77
2024/03/12 09:57:56;;;;;;;;;19.50;19.50;;;;;;;;5087212;28;10394;-79
2024/03/12 10:00:27;;;;;;;;;19.75;19.75;;;;;;;;5086796;28;10673;-78
2024/03/12 10:02:55;;;;;;;;;20.00;17.50;;;;;;;;5086491;28;10633;-77
2024/03/12 10:05:22;;;;;;;;;18.00;16.00;;;;;;;;5087615;28;10843;-78
2024/03/12 10:08:13;;;;;;;;;18.00;18.00;;;;;;;;5087051;28;10682;-78
2024/03/12 10:10:42;;;;;;;;;21.00;21.00;;;;;;;;5087847;28;10628;-79
2024/03/12 10:13:14;;;;;;;;;24.00;20.50;;;;;;;;5087847;28;11402;-79
2024/03/12 10:15:50;;;;;;;;;21.50;21.50;;;;;;;;5087562;28;10546;-77
2024/03/12 10:18:21;;;;;;;;;25.00;23.75;;;;;;;;5087822;28;10580;-77
2024/03/12 10:20:50;;;;;;;;;21.75;19.75;;;;;;;;5087306;28;10725;-77
2024/03/12 10:23:21;;;;;;;;;24.50;21.00;;;;;;;;5087347;28;10802;-79
2024/03/12 10:25:49;;;;;;;;;26.00;22.00;;;;;;;;5087265;28;10839;-79
2024/03/12 10:28:26;;;;;;;;;23.00;21.75;;;;;;;;5087951;28;10814;-79
2024/03/12 10:30:53;;;;;;;;;23.50;23.50;;;;;;;;5087315;28;10823;-78
2024/03/12 10:33:21;;;;;;;;;25.00;22.50;;;;;;;;5087595;28;11017;-78
2024/03/12 10:35:50;;;;;;;;;25.25;22.75;;;;;;;;5088767;28;10728;-77
2024/03/12 10:38:29;;;;;;;;;30.00;22.25;;;;;;;;5090043;28;10753;-78
2024/03/12 10:40:58;;;;;;;;;25.00;22.00;;;;;;;;5090984;28;10684;-79
2024/03/12 10:43:26;;;;;;;;;21.75;20.00;;;;;;;;5090929;28;10742;-76
2024/03/12 10:45:54;;;;;;;;;18.25;18.25;;;;;;;;5092674;28;10678;-78
2024/03/12 10:48:22;;;;;;;;;24.25;20.75;;;;;;;;5090220;28;10520;-78
2024/03/12 10:50:49;;;;;;;;;18.50;16.50;;;;;;;;5086985;28;10565;-76
2024/03/12 10:53:21;;;;;;;;;20.75;19.00;;;;;;;;5093643;28;10580;-75
2024/03/12 10:55:50;;;;;;;;;12.75;12.75;;;;;;;;5092298;28;11274;-78
2024/03/12 10:58:18;;;;;;;;;13.25;13.25;;;;;;;;5088486;28;10565;-77
2024/03/12 11:00:47;;;;;;;;;14.00;12.75;;;;;;;;5087557;28;11187;-77
2024/03/12 11:03:17;;;;;;;;;10.50;10.50;;;;;;;;5076879;28;10518;-78
2024/03/12 11:05:48;;;;;;;;;14.75;13.25;;;;;;;;5090382;28;10589;-76
2024/03/12 11:08:18;;;;;;;;;9.75;9.75;;;;;;;;5090471;28;10413;-77
2024/03/12 11:10:47;;;;;;;;;11.25;11.25;;;;;;;;5090885;28;10408;-76
2024/03/12 11:13:20;;;;;;;;;12.50;10.75;;;;;;;;5091160;28;10607;-78
2024/03/12 11:15:47;;;;;;;;;9.25;8.50;;;;;;;;5090613;28;10463;-78
2024/03/12 11:18:15;;;;;;;;;13.25;11.75;;;;;;;;5091224;28;10499;-80
2024/03/12 11:20:42;;;;;;;;;11.25;10.25;;;;;;;;5090373;28;10415;-78
2024/03/12 11:23:10;;;;;;;;;9.25;9.25;;;;;;;;5092159;28;10480;-78
2024/03/12 11:25:45;;;;;;;;;10.00;10.00;;;;;;;;5093436;28;10312;-77
2024/03/12 11:28:22;;;;;;;;;10.50;10.50;;;;;;;;5092903;28;10377;-79
2024/03/12 11:30:50;;;;;;;;;12.00;11.00;;;;;;;;5080331;28;10396;-79
2024/03/12 11:33:45;;;;;;;;;11.50;11.25;;;;;;;;5090154;28;10387;-76
2024/03/12 11:36:13;;;;;;;;;11.25;11.25;;;;;;;;5090390;28;10415;-77
2024/03/12 11:38:41;;;;;;;;;10.00;10.00;;;;;;;;5090036;28;10334;-76
2024/03/12 11:41:09;;;;;;;;;10.25;9.75;;;;;;;;5094318;28;10389;-78
2024/03/12 11:43:39;;;;;;;;;10.50;10.50;;;;;;;;5096586;28;11001;-78
2024/03/12 11:46:07;;;;;;;;;10.00;10.00;;;;;;;;5090093;28;10410;-84
2024/03/12 11:48:35;;;;;;;;;10.50;9.50;;;;;;;;5089672;28;10486;-78
2024/03/12 11:51:04;;;;;;;;;10.75;10.75;;;;;;;;5089743;28;10453;-79
2024/03/12 11:53:32;;;;;;;;;12.25;10.75;;;;;;;;5090340;28;10553;-77
2024/03/12 11:56:15;;;;;;;;;12.25;11.50;;;;;;;;5089870;28;10411;-79
2024/03/12 11:58:49;;;;;;;;;11.75;10.75;;;;;;;;5090445;28;10390;-79
2024/03/12 12:01:18;;;;;;;;;11.75;10.25;;;;;;;;5089669;28;10435;-77
2024/03/12 12:03:47;;;;;;;;;11.25;11.25;;;;;;;;5090456;28;10454;-79
2024/03/12 12:06:14;;;;;;;;;8.75;8.75;;;;;;;;5090329;28;10515;-78
2024/03/12 12:08:43;;;;;;;;;10.75;10.00;;;;;;;;5089368;28;10451;-77
2024/03/12 12:11:11;;;;;;;;;9.25;6.75;;;;;;;;5089263;28;10668;-80
2024/03/12 12:13:41;;;;;;;;;10.25;10.25;;;;;;;;5089777;28;10537;-79
2024/03/12 12:16:14;;;;;;;;;12.50;10.25;;;;;;;;5089849;28;10640;-81
2024/03/12 12:18:41;;;;;;;;;10.50;10.50;;;;;;;;5089502;28;10738;-80
2024/03/12 12:21:12;;;;;;;;;11.75;10.00;;;;;;;;5090213;28;10461;-82
2024/03/12 12:23:39;;;;;;;;;15.00;13.25;;;;;;;;5090335;28;10469;-78
2024/03/12 12:26:08;;;;;;;;;9.50;9.50;;;;;;;;5090547;28;10642;-77
2024/03/12 12:28:35;;;;;;;;;3.00;3.00;;;;;;;;5089106;28;10669;-79
2024/03/12 12:31:04;;;;;;;;;18.75;14.00;;;;;;;;5090547;28;10382;-77
2024/03/12 12:33:38;;;;;;;;;14.50;12.75;;;;;;;;5090957;28;10704;-78
2024/03/12 12:36:08;;;;;;;;;32.25;30.75;;;;;;;;5091125;28;10650;-78
2024/03/12 12:38:36;;;;;;;;;15.25;13.25;;;;;;;;5090715;28;11303;-78
2024/03/12 12:41:04;;;;;;;;;12.75;11.75;;;;;;;;5092246;28;10661;-77
2024/03/12 12:43:33;;;;;;;;;13.25;13.25;;;;;;;;5089661;28;10693;-77
2024/03/12 12:46:05;;;;;;;;;18.25;14.75;;;;;;;;5089178;28;10560;-76
2024/03/12 12:48:35;;;;;;;;;17.75;15.00;;;;;;;;5088462;28;10809;-78
2024/03/12 12:51:04;;;;;;;;;17.25;13.25;;;;;;;;5088796;28;10672;-79
2024/03/12 12:53:31;;;;;;;;;14.75;14.75;;;;;;;;5087649;28;10660;-77
2024/03/12 12:56:02;;;;;;;;;13.75;13.00;;;;;;;;5088762;28;10539;-78
2024/03/12 12:58:31;;;;;;;;;15.50;14.50;;;;;;;;5088560;28;10624;-77
2024/03/12 13:01:02;;;;;;;;;18.00;17.50;;;;;;;;5087592;28;10642;-79
2024/03/12 13:03:38;;;;;;;;;15.75;13.75;;;;;;;;5088736;28;10809;-77
2024/03/12 13:06:15;;;;;;;;;17.50;14.00;;;;;;;;5088046;28;10712;-78
2024/03/12 13:08:44;;;;;;;;;22.25;19.75;;;;;;;;5088245;28;11430;-76
2024/03/12 13:11:12;;;;;;;;;14.25;13.50;;;;;;;;5084480;28;10813;-78
2024/03/12 13:13:40;;;;;;;;;14.00;10.75;;;;;;;;5086006;28;10673;-78
2024/03/12 13:16:19;;;;;;;;;15.00;15.00;;;;;;;;5091218;28;10516;-75
2024/03/12 13:18:49;;;;;;;;;17.00;15.00;;;;;;;;5095026;28;10676;-77
2024/03/12 13:21:18;;;;;;;;;18.00;13.25;;;;;;;;5091090;28;10502;-78
2024/03/12 13:23:46;;;;;;;;;16.50;15.75;;;;;;;;5089816;28;10540;-75
2024/03/12 13:26:13;;;;;;;;;22.00;18.25;;;;;;;;5089420;28;10588;-77
2024/03/12 13:28:41;;;;;;;;;19.50;16.50;;;;;;;;5087235;28;10492;-77
2024/03/12 13:31:10;;;;;;;;;15.25;14.50;;;;;;;;5088299;28;10394;-77
2024/03/12 13:33:37;;;;;;;;;14.00;14.00;;;;;;;;5088276;28;10499;-78
2024/03/12 13:36:06;;;;;;;;;17.75;17.75;;;;;;;;5089232;28;10480;-79
2024/03/12 13:38:34;;;;;;;;;12.75;12.50;;;;;;;;5088557;28;10598;-79
2024/03/12 13:41:02;;;;;;;;;21.75;20.50;;;;;;;;5088974;28;10407;-77
2024/03/12 13:43:32;;;;;;;;;21.50;17.25;;;;;;;;5088699;28;10629;-84
2024/03/12 13:45:59;;;;;;;;;17.25;15.50;;;;;;;;5089027;28;10522;-78
2024/03/12 13:48:30;;;;;;;;;13.00;13.00;;;;;;;;5088340;28;10242;-82
2024/03/12 13:50:59;;;;;;;;;13.00;13.00;;;;;;;;5088937;28;10285;-79
2024/03/12 13:53:32;;;;;;;;;14.50;14.50;;;;;;;;5088658;28;10311;-81
2024/03/12 13:56:00;;;;;;;;;14.75;14.75;;;;;;;;5087892;28;10307;-79
2024/03/12 13:58:28;;;;;;;;;21.75;19.00;;;;;;;;5088493;28;10608;-77
2024/03/12 14:00:56;;;;;;;;;19.50;19.50;;;;;;;;5087857;28;10358;-79
2024/03/12 14:03:24;;;;;;;;;27.50;26.00;;;;;;;;5087926;28;10563;-77
2024/03/12 14:05:53;;;;;;;;;18.25;18.25;;;;;;;;5088135;28;11606;-76
2024/03/12 14:08:21;;;;;;;;;15.50;15.50;;;;;;;;5088647;28;10408;-78
2024/03/12 14:10:51;;;;;;;;;16.00;15.50;;;;;;;;5088210;28;10146;-79
2024/03/12 14:13:21;;;;;;;;;14.25;14.25;;;;;;;;5088923;28;10250;-75
2024/03/12 14:15:48;;;;;;;;;32.25;30.75;;;;;;;;5089097;28;10245;-77
2024/03/12 14:18:21;;;;;;;;;16.50;14.50;;;;;;;;5089955;28;10770;-77
2024/03/12 14:20:48;;;;;;;;;17.00;17.00;;;;;;;;5092095;28;10327;-79
2024/03/12 14:23:16;;;;;;;;;12.50;11.75;;;;;;;;5090987;28;10504;-76
2024/03/12 14:25:43;;;;;;;;;15.25;14.00;;;;;;;;5090613;28;10489;-76
2024/03/12 14:28:12;;;;;;;;;17.25;15.75;;;;;;;;5089323;28;10530;-78
2024/03/12 14:30:38;;;;;;;;;16.50;15.75;;;;;;;;5091243;28;10356;-76
2024/03/12 14:33:05;;;;;;;;;14.75;14.75;;;;;;;;5088526;28;10278;-78
2024/03/12 14:35:33;;;;;;;;;14.25;12.50;;;;;;;;5087044;28;10253;-78
2024/03/12 14:38:00;;;;;;;;;13.75;12.00;;;;;;;;5087732;28;10465;-79